SLSA4: ILLINOIS RIVER AT HIGHWAY 16 BRIDGE NR SILOAM SPRINGS 4SE

                                SHEF ID:       SLSA4     Illinois River at Hwy. 16 near S
STATION TYPE:

PRECIP STAGE RIV-FLOW BAT-LOAD
in ft cfs volt
Ccp-Rev Ccp-Rev Ccp-Rev Ccp-Rev
(America/Chicago)
04/28 00:00 0.00 8.14 1269 12.56
04/28 01:00 0.00 8.10 1235 12.53
04/28 02:00 0.00 8.07 1210 12.50
04/28 03:00 0.00 8.04 1185 12.48
04/28 04:00 0.00 8.02 1169 12.46
04/28 05:00 0.00 7.99 1145 12.44
04/28 06:00 0.00 7.96 1122 12.42
04/28 07:00 0.00 7.93 1100 12.40
04/28 08:00 0.00 7.91 1085 12.44
04/28 09:00 0.00 7.88 1064 12.68
04/28 10:00 0.00 7.86 1049 13.23
04/28 11:00 0.00 7.87 1056 12.82
04/28 12:00 0.00 7.84 1035 13.44
04/28 13:00 0.01 7.84 1035 13.41
04/28 14:00 0.00 7.84 1035 13.36
04/28 15:00 0.00 7.83 1028 13.26
04/28 16:00 0.00 7.80 1007 13.00
04/28 17:00 0.01 7.82 1021 12.90
04/28 18:00 0.00 7.86 1049 12.67
04/28 19:00 0.00 7.87 1056 13.07
04/28 20:00 0.00 7.88 1064 12.76
04/28 21:00 0.00 7.93 1100 12.61
04/28 22:00 0.01 8.00 1153 12.58
04/28 23:00 0.00 8.10 1235 12.54
Data processed at Wed 29Apr2026 04:14 GMT

NOTICE: If you are parsing this page

Please convert to using our Data API. Starting early 2026 we will be migrating to: https://water.usace.army.mil with modern pages rendered in JavaScript. When this migration completes you will no longer be able to scrape this page! CWMSDataAPI (CDA)

Timeseries IDs (TSIDs)

TSIDs used from left to right in the data table
SILS.Precip-Inc.Total.1Hour.1Hour.Ccp-Rev
SILS.Stage.Inst.1Hour.0.Ccp-Rev
SILS.Flow.Inst.1Hour.0.Ccp-Rev
SILS.Volt-Battery Load.Inst.1Hour.0.Ccp-Rev

                            

All information presented herein is the property of the government of the United States of America and may be revised or deleted at any time without prior notice. Dissemination of this information without the expressed written consent of the Public Affairs Office, Tulsa District U.S. Army Corps of Engineers is strictly prohibited. These data are gathered electronically and, as presented, have NOT undergone any form of quality control. These data are NOT guaranteed to be valid or correct.